Time;durP1;ratioP1;P1;durP2;ratioP2;P2;SDS_P1;SDS_P2;PMS_P1;PMS_P2;Temp;Humidity;BMP_temperature;BMP_pressure;BME280_temperature;BME280_humidity;BME280_pressure;Samples;Min_cycle;Max_cycle;Signal;HPM_P1;HPM_P2
2023/07/23 00:01:05;;;;;;;4.25;2.30;;;;;;;18.67;44.76;97615.91;10418204;28;20176;-67
2023/07/23 00:06:26;;;;;;;5.07;2.42;;;;;;;18.61;44.89;97619.19;10403212;28;20217;-67
2023/07/23 00:11:47;;;;;;;6.50;2.58;;;;;;;18.56;44.94;97618.34;10418434;28;20065;-66
2023/07/23 00:17:08;;;;;;;5.63;2.70;;;;;;;18.61;45.11;97613.53;10417401;28;20386;-67
2023/07/23 00:22:28;;;;;;;5.07;2.53;;;;;;;18.56;45.37;97603.50;10416526;28;20569;-67
2023/07/23 00:27:49;;;;;;;4.30;2.28;;;;;;;18.46;45.88;97603.88;10402353;28;20517;-66
2023/07/23 00:33:10;;;;;;;5.32;2.53;;;;;;;18.38;45.84;97594.41;10402164;28;20120;-67
2023/07/23 00:38:30;;;;;;;5.85;2.22;;;;;;;18.28;45.87;97591.94;10402433;28;20125;-66
2023/07/23 00:43:51;;;;;;;4.68;2.10;;;;;;;18.16;46.21;97588.69;10401770;28;20115;-67
2023/07/23 00:49:12;;;;;;;4.38;2.13;;;;;;;17.98;45.89;97592.31;10401391;28;20100;-67
2023/07/23 00:54:33;;;;;;;4.75;2.78;;;;;;;17.79;46.77;97586.66;10416228;28;20121;-66
2023/07/23 00:59:56;;;;;;;3.00;2.35;;;;;;;17.69;46.99;97578.50;10373879;28;20124;-66
2023/07/23 01:05:17;;;;;;;3.80;2.58;;;;;;;17.67;47.04;97567.88;10360637;28;20120;-68
2023/07/23 01:10:39;;;;;;;5.20;2.13;;;;;;;17.62;47.43;97560.63;10374855;28;20077;-68
2023/07/23 01:16:03;;;;;;;5.13;2.30;;;;;;;17.59;47.57;97556.28;10374010;28;20574;-68
2023/07/23 01:21:23;;;;;;;4.22;2.33;;;;;;;17.58;47.82;97556.94;10373684;28;20088;-67
2023/07/23 01:26:44;;;;;;;4.32;1.95;;;;;;;17.56;47.94;97549.09;10374094;28;20077;-67
2023/07/23 01:32:05;;;;;;;5.15;2.15;;;;;;;17.54;48.17;97548.28;10373372;28;20172;-68
2023/07/23 01:37:25;;;;;;;5.95;1.98;;;;;;;17.53;48.30;97544.75;10372782;28;20074;-68
2023/07/23 01:42:46;;;;;;;5.47;2.05;;;;;;;17.52;48.60;97548.22;10359203;28;20551;-68
2023/07/23 01:48:07;;;;;;;3.30;1.90;;;;;;;17.50;48.89;97563.00;10372957;28;20448;-68
2023/07/23 01:53:28;;;;;;;4.75;2.10;;;;;;;17.48;48.70;97545.28;10346229;28;20073;-68
2023/07/23 01:58:49;;;;;;;5.57;2.00;;;;;;;17.46;48.91;97538.16;10358891;28;20081;-68
2023/07/23 02:04:10;;;;;;;2.35;1.50;;;;;;;17.44;49.08;97543.00;10358780;28;20105;-68
2023/07/23 02:09:31;;;;;;;5.30;1.85;;;;;;;17.43;49.19;97547.91;10372316;28;20125;-67
2023/07/23 02:14:51;;;;;;;3.88;1.48;;;;;;;17.38;49.54;97539.97;10372442;28;20133;-67
2023/07/23 02:20:12;;;;;;;2.63;1.75;;;;;;;17.39;49.50;97547.06;10359009;28;20121;-67
2023/07/23 02:25:41;;;;;;;2.45;1.40;;;;;;;17.36;49.42;97542.69;10372236;28;20070;-67
2023/07/23 02:31:01;;;;;;;4.32;2.00;;;;;;;17.41;49.47;97539.38;10372212;28;20069;-68
2023/07/23 02:36:23;;;;;;;3.38;1.80;;;;;;;17.50;49.67;97537.59;10371747;28;20125;-67
2023/07/23 02:41:43;;;;;;;3.03;1.50;;;;;;;17.68;49.36;97538.25;10371941;28;20121;-68
2023/07/23 02:47:04;;;;;;;3.00;1.40;;;;;;;17.81;48.89;97533.81;10374546;28;20049;-67
2023/07/23 02:52:24;;;;;;;4.18;1.70;;;;;;;17.88;49.02;97538.28;10365448;28;20118;-68
2023/07/23 02:57:45;;;;;;;6.63;2.28;;;;;;;18.02;48.72;97547.25;10365435;28;20117;-67
2023/07/23 03:03:07;;;;;;;2.72;1.60;;;;;;;18.06;48.82;97546.69;10397826;28;20495;-68
2023/07/23 03:08:28;;;;;;;3.15;1.55;;;;;;;18.02;48.62;97541.59;10391718;28;20046;-68
2023/07/23 03:13:48;;;;;;;4.78;2.20;;;;;;;17.95;48.52;97539.22;10378048;28;20482;-68
2023/07/23 03:19:09;;;;;;;2.85;1.45;;;;;;;17.88;48.80;97534.75;10419969;28;20470;-67
2023/07/23 03:24:30;;;;;;;4.13;1.50;;;;;;;17.82;48.60;97535.25;10405086;28;20116;-66
2023/07/23 03:29:50;;;;;;;5.35;2.20;;;;;;;17.79;48.63;97527.38;10377385;28;20120;-67
2023/07/23 03:35:11;;;;;;;2.40;1.52;;;;;;;17.85;48.38;97533.94;10404532;28;20119;-67
2023/07/23 03:40:32;;;;;;;4.13;1.67;;;;;;;17.91;48.44;97522.88;10404801;28;20125;-67
2023/07/23 03:45:53;;;;;;;3.78;1.67;;;;;;;17.96;48.18;97516.00;10404745;28;20072;-68
2023/07/23 03:51:15;;;;;;;5.47;1.60;;;;;;;18.06;48.33;97512.09;10403846;28;20163;-67
2023/07/23 03:56:36;;;;;;;5.70;1.60;;;;;;;18.14;48.31;97512.34;10403819;28;20514;-67
2023/07/23 04:01:58;;;;;;;3.35;1.80;;;;;;;18.20;48.17;97515.38;10403810;28;20085;-68
2023/07/23 04:07:18;;;;;;;3.90;1.63;;;;;;;18.30;48.21;97513.63;10418182;28;20045;-67
2023/07/23 04:12:39;;;;;;;7.88;2.33;;;;;;;18.39;47.88;97522.38;10402657;28;20121;-67
2023/07/23 04:18:00;;;;;;;3.03;2.00;;;;;;;18.40;47.96;97521.72;10417456;28;20073;-68
2023/07/23 04:23:21;;;;;;;2.80;1.73;;;;;;;18.39;47.76;97520.25;10402377;28;20573;-68
2023/07/23 04:28:41;;;;;;;3.45;1.55;;;;;;;18.36;47.64;97521.59;10417190;28;20125;-69
2023/07/23 04:34:02;;;;;;;2.40;1.70;;;;;;;18.53;47.95;97520.75;10417114;28;20072;-68
2023/07/23 04:39:24;;;;;;;3.00;1.67;;;;;;;18.72;47.88;97524.16;10416626;28;20072;-67
2023/07/23 04:44:44;;;;;;;3.00;1.60;;;;;;;18.90;47.56;97530.41;10402056;28;20121;-68
2023/07/23 04:50:05;;;;;;;3.97;1.70;;;;;;;18.95;47.52;97525.63;10402213;28;20453;-68
2023/07/23 04:55:29;;;;;;;4.45;1.67;;;;;;;18.85;47.10;97523.91;10402609;28;20125;-67
2023/07/23 05:00:50;;;;;;;3.17;1.50;;;;;;;18.74;47.50;97530.63;10416166;28;20069;-68
2023/07/23 05:06:11;;;;;;;3.40;1.73;;;;;;;19.10;47.79;97530.31;10416807;28;20594;-67
2023/07/23 05:11:32;;;;;;;4.50;1.85;;;;;;;19.48;47.10;97527.91;10401021;28;20072;-67
2023/07/23 05:16:52;;;;;;;3.38;1.63;;;;;;;19.63;46.52;97523.44;10415913;28;20041;-67
2023/07/23 05:22:13;;;;;;;4.60;1.80;;;;;;;19.89;46.02;97524.16;10416423;28;20555;-67
2023/07/23 05:27:34;;;;;;;4.90;2.58;;;;;;;20.14;45.38;97513.47;10415548;28;20137;-67
2023/07/23 05:32:55;;;;;;;3.45;1.75;;;;;;;20.41;44.29;97523.38;10416198;28;20120;-68
2023/07/23 05:38:15;;;;;;;4.07;1.90;;;;;;;20.67;44.26;97529.75;10415355;28;20117;-67
2023/07/23 05:43:36;;;;;;;2.97;1.85;;;;;;;20.79;43.91;97540.66;10401307;28;20069;-67
2023/07/23 05:48:57;;;;;;;5.43;1.63;;;;;;;20.52;43.37;97531.50;10415344;28;20129;-68
2023/07/23 05:54:18;;;;;;;3.35;2.00;;;;;;;20.44;43.78;97528.47;10415195;28;20072;-68
2023/07/23 05:59:38;;;;;;;4.00;1.75;;;;;;;20.26;44.07;97537.19;10400052;28;20041;-67
2023/07/23 06:04:59;;;;;;;4.60;2.13;;;;;;;20.37;44.14;97528.97;10386547;28;20403;-68
2023/07/23 06:10:20;;;;;;;3.72;1.83;;;;;;;20.53;44.07;97535.78;10414934;28;20077;-67
2023/07/23 06:15:40;;;;;;;3.75;1.90;;;;;;;20.91;44.07;97528.88;10386194;28;20120;-67
2023/07/23 06:21:02;;;;;;;3.15;1.77;;;;;;;21.58;43.01;97538.91;10415890;28;20061;-67
2023/07/23 06:26:23;;;;;;;2.63;1.77;;;;;;;22.89;42.25;97533.56;10422757;28;20065;-68
2023/07/23 06:31:44;;;;;;;5.40;2.00;;;;;;;24.07;38.50;97535.88;10407589;28;20527;-68
2023/07/23 06:37:05;;;;;;;2.70;1.67;;;;;;;24.92;36.34;97540.97;10422090;28;20125;-67
2023/07/23 06:42:26;;;;;;;3.40;1.85;;;;;;;25.03;35.58;97539.66;10406922;28;20121;-68
2023/07/23 06:47:46;;;;;;;6.05;1.42;;;;;;;26.18;34.96;97550.25;10421951;28;20455;-68
2023/07/23 06:53:09;;;;;;;2.80;1.50;;;;;;;27.28;33.31;97547.47;10406235;28;20456;-68
2023/07/23 06:58:31;;;;;;;3.00;1.48;;;;;;;27.75;31.23;97538.78;10421171;28;20065;-68
2023/07/23 07:03:52;;;;;;;4.10;1.67;;;;;;;28.30;30.80;97541.44;10392720;28;20442;-68
2023/07/23 07:09:12;;;;;;;2.53;1.90;;;;;;;28.00;30.04;97534.38;10420724;28;20124;-68
2023/07/23 07:14:33;;;;;;;3.50;1.52;;;;;;;28.71;30.10;97533.25;10392280;28;20065;-68
2023/07/23 07:19:54;;;;;;;3.13;1.95;;;;;;;29.78;29.33;97536.56;10405441;28;20064;-68
2023/07/23 07:25:15;;;;;;;3.28;1.80;;;;;;;30.32;28.62;97531.56;10405882;28;20069;-68
2023/07/23 07:30:40;;;;;;;2.65;1.65;;;;;;;30.15;27.21;97533.97;10419945;28;20045;-68
2023/07/23 07:36:01;;;;;;;4.28;1.88;;;;;;;29.83;28.15;97530.03;10404870;28;20041;-68
2023/07/23 07:41:22;;;;;;;2.35;1.45;;;;;;;29.83;27.97;97520.69;10404849;28;20045;-68
2023/07/23 07:46:43;;;;;;;3.65;2.13;;;;;;;30.36;27.94;97517.81;10419297;28;20053;-68
2023/07/23 07:52:04;;;;;;;2.60;2.00;;;;;;;30.33;27.89;97513.56;10419325;28;20037;-68
2023/07/23 07:57:26;;;;;;;4.93;1.80;;;;;;;29.68;28.83;97514.38;10404422;28;20048;-68
2023/07/23 08:02:48;;;;;;;3.97;1.58;;;;;;;29.82;27.65;97496.22;10403941;28;20049;-68
2023/07/23 08:08:09;;;;;;;3.90;1.80;;;;;;;30.60;24.96;97501.63;10418832;28;20045;-68
2023/07/23 08:13:30;;;;;;;3.00;1.30;;;;;;;30.73;24.80;97491.38;10390258;28;20045;-68
2023/07/23 08:18:51;;;;;;;2.20;1.30;;;;;;;30.82;24.24;97481.13;10403113;28;20288;-68
2023/07/23 08:24:13;;;;;;;2.10;0.98;;;;;;;31.15;23.81;97480.53;10417836;28;20069;-68
2023/07/23 08:29:34;;;;;;;2.08;1.08;;;;;;;30.61;23.56;97462.75;10417655;28;20049;-68
2023/07/23 08:34:55;;;;;;;1.70;1.10;;;;;;;31.28;23.46;97478.91;10417328;28;20050;-68
2023/07/23 08:40:17;;;;;;;1.80;1.03;;;;;;;31.76;22.72;97479.41;10389284;28;20041;-68
2023/07/23 08:46:14;;;;;;;2.15;1.23;;;;;;;31.83;22.29;97472.03;10388124;28;20045;-68
2023/07/23 08:51:42;;;;;;;2.20;1.23;;;;;;;32.08;22.75;97457.78;10401746;28;20042;-68
2023/07/23 08:57:03;;;;;;;2.33;1.25;;;;;;;32.17;21.65;97464.78;10416498;28;20587;-68
2023/07/23 09:02:24;;;;;;;4.78;1.65;;;;;;;31.66;21.80;97453.63;10402001;28;20049;-68
2023/07/23 09:07:46;;;;;;;2.28;1.40;;;;;;;32.05;21.99;97465.78;10385993;28;20057;-68
2023/07/23 09:13:11;;;;;;;2.00;1.42;;;;;;;31.66;21.37;97456.53;10387973;28;20042;-67
2023/07/23 09:18:41;;;;;;;4.18;1.63;;;;;;;32.14;21.80;97446.81;10415836;28;20442;-68
2023/07/23 09:24:05;;;;;;;5.68;1.33;;;;;;;33.02;20.48;97468.53;10388575;28;20053;-68
2023/07/23 09:29:35;;;;;;;5.57;1.45;;;;;;;32.68;21.06;97452.75;10415716;28;20098;-68
2023/07/23 09:34:57;;;;;;;3.38;1.42;;;;;;;33.43;20.13;97447.19;10387747;28;20080;-68
2023/07/23 09:40:18;;;;;;;3.97;1.70;;;;;;;33.26;19.63;97455.59;10415353;28;20057;-70
2023/07/23 09:45:39;;;;;;;2.92;1.38;;;;;;;33.00;19.58;97447.63;10386584;28;20409;-67
2023/07/23 09:51:01;;;;;;;2.42;1.48;;;;;;;32.74;20.11;97432.38;10400539;28;20053;-68
2023/07/23 09:56:22;;;;;;;2.70;1.13;;;;;;;32.83;20.26;97423.50;10390652;28;20052;-68
2023/07/23 10:01:43;;;;;;;3.63;1.73;;;;;;;33.35;19.63;97423.53;10408855;28;20053;-68
2023/07/23 10:07:05;;;;;;;1.50;0.98;;;;;;;33.74;19.70;97440.53;10394575;28;20103;-68
2023/07/23 10:12:26;;;;;;;;;;;;;;;33.74;19.84;97426.06;10408579;28;20124;-70
2023/07/23 10:17:49;;;;;;;4.13;1.40;;;;;;;33.66;19.11;97435.69;10422588;28;19920;-70
2023/07/23 10:23:10;;;;;;;2.72;1.45;;;;;;;33.81;19.41;97430.91;10394610;28;20466;-70
2023/07/23 10:28:34;;;;;;;1.60;1.00;;;;;;;34.32;19.53;97408.34;10407852;28;20455;-70
2023/07/23 10:33:55;;;;;;;2.55;1.08;;;;;;;34.22;19.22;97420.25;10422164;28;20042;-71
2023/07/23 10:39:18;;;;;;;3.33;1.17;;;;;;;33.71;19.84;97407.34;10422042;28;20038;-70
2023/07/23 10:44:39;;;;;;;2.90;1.08;;;;;;;33.80;19.80;97403.44;10364024;28;20407;-70
2023/07/23 10:50:13;;;;;;;1.90;1.23;;;;;;;34.30;19.67;97397.53;10406860;28;20045;-71
2023/07/23 10:55:45;;;;;;;1.73;1.00;;;;;;;34.27;19.42;97404.19;10406784;28;20053;-71
2023/07/23 11:01:05;;;;;;;2.08;1.20;;;;;;;34.28;19.42;97388.91;10407031;28;20533;-70
2023/07/23 11:06:32;;;;;;;3.88;1.10;;;;;;;34.43;18.78;97395.66;10405231;28;20076;-71
2023/07/23 11:11:54;;;;;;;2.53;1.33;;;;;;;33.69;18.61;97384.25;10421242;28;20046;-70
2023/07/23 11:17:15;;;;;;;1.80;1.38;;;;;;;33.22;19.34;97374.75;10405585;28;20038;-70
2023/07/23 11:22:42;;;;;;;4.00;1.17;;;;;;;33.99;18.49;97374.66;10405812;28;20108;-70
2023/07/23 11:28:03;;;;;;;2.60;1.42;;;;;;;32.90;19.38;97373.44;10420483;28;20045;-70
2023/07/23 11:33:27;;;;;;;3.28;1.30;;;;;;;33.29;19.60;97357.91;10405260;28;20387;-70
2023/07/23 11:38:56;;;;;;;3.47;1.25;;;;;;;32.99;19.77;97356.59;10419487;28;20442;-70
2023/07/23 11:44:17;;;;;;;2.33;1.10;;;;;;;32.87;18.89;97343.19;10404717;28;20045;-70
2023/07/23 11:49:37;;;;;;;2.13;1.17;;;;;;;32.93;19.06;97351.00;10405043;28;20042;-70
2023/07/23 11:54:58;;;;;;;4.22;1.10;;;;;;;33.68;19.19;97330.72;10390747;28;20042;-70
2023/07/23 12:00:24;;;;;;;2.33;1.38;;;;;;;33.79;18.93;97334.75;10418806;28;20069;-71
2023/07/23 12:05:45;;;;;;;2.35;1.13;;;;;;;33.09;19.55;97333.19;10403931;28;20053;-70
2023/07/23 12:11:07;;;;;;;1.85;1.10;;;;;;;32.99;19.28;97325.50;10418556;28;20462;-70
2023/07/23 12:16:40;;;;;;;2.88;1.20;;;;;;;32.92;19.29;97332.25;10403621;28;20038;-70
2023/07/23 12:22:01;;;;;;;2.42;1.30;;;;;;;32.60;19.80;97319.34;10403137;28;20487;-70
2023/07/23 12:27:23;;;;;;;2.55;0.90;;;;;;;32.60;19.79;97310.69;10403746;28;20407;-70
2023/07/23 12:32:45;;;;;;;1.42;1.15;;;;;;;32.10;20.30;97305.44;10402777;28;20125;-70
2023/07/23 12:38:05;;;;;;;3.47;1.17;;;;;;;32.09;20.37;97309.81;10389060;28;20104;-70
2023/07/23 12:43:26;;;;;;;3.45;1.10;;;;;;;31.92;20.63;97305.19;10417272;28;20049;-70
2023/07/23 12:48:47;;;;;;;2.30;1.40;;;;;;;32.11;20.82;97306.88;10402154;28;20073;-70
2023/07/23 12:54:08;;;;;;;4.05;1.42;;;;;;;32.13;20.46;97306.81;10416868;28;20395;-70
2023/07/23 12:59:28;;;;;;;4.47;1.63;;;;;;;32.05;20.50;97304.16;10416525;28;20438;-70
2023/07/23 13:04:49;;;;;;;2.42;1.67;;;;;;;31.82;20.27;97291.72;10416696;28;20411;-69
2023/07/23 13:10:10;;;;;;;3.40;1.70;;;;;;;31.60;20.54;97296.53;10401376;28;20081;-70
2023/07/23 13:15:31;;;;;;;2.40;1.60;;;;;;;31.23;21.23;97287.28;10401379;28;20141;-70
2023/07/23 13:20:52;;;;;;;2.47;1.27;;;;;;;31.11;21.29;97296.16;10416231;28;20041;-70
2023/07/23 13:26:13;;;;;;;3.53;1.23;;;;;;;30.70;21.95;97273.97;10400954;28;20077;-69
2023/07/23 13:31:34;;;;;;;3.33;1.13;;;;;;;30.49;22.21;97291.56;10415651;28;20411;-69
2023/07/23 13:36:54;;;;;;;2.33;1.50;;;;;;;30.48;22.21;97290.16;10400667;28;20045;-70
2023/07/23 13:42:19;;;;;;;4.67;1.10;;;;;;;30.34;22.53;97276.03;10415124;28;20056;-70
2023/07/23 13:47:40;;;;;;;1.98;1.30;;;;;;;30.10;23.34;97293.72;10386840;28;20479;-69
2023/07/23 13:53:01;;;;;;;2.92;1.27;;;;;;;30.14;22.90;97282.16;10400727;28;20041;-70
2023/07/23 13:58:22;;;;;;;2.23;1.50;;;;;;;30.22;23.12;97276.28;10415784;28;20116;-71
2023/07/23 14:03:42;;;;;;;3.58;1.48;;;;;;;30.11;23.39;97272.88;10386824;28;20061;-70
2023/07/23 14:09:03;;;;;;;3.27;1.77;;;;;;;30.12;22.78;97262.06;10414941;28;20065;-69
2023/07/23 14:14:24;;;;;;;3.00;1.60;;;;;;;30.18;23.37;97224.53;10414729;28;20376;-70
2023/07/23 14:19:46;;;;;;;2.30;1.47;;;;;;;30.57;23.08;97246.81;10399693;28;20052;-69
2023/07/23 14:25:07;;;;;;;;;;;;;;;31.05;22.40;97224.94;10414699;28;20358;-70
2023/07/23 14:30:28;;;;;;;2.85;1.70;;;;;;;31.14;22.15;97243.47;10414695;28;19960;-70
2023/07/23 14:35:51;;;;;;;3.53;1.83;;;;;;;30.86;22.73;97226.81;10385726;28;20119;-69
2023/07/23 14:41:11;;;;;;;4.20;1.70;;;;;;;30.96;22.38;97215.78;10385793;28;20069;-69
2023/07/23 14:46:32;;;;;;;3.53;1.67;;;;;;;30.66;22.57;97196.97;10407095;28;20061;-69
2023/07/23 14:51:53;;;;;;;3.63;1.77;;;;;;;31.08;22.59;97182.38;10421559;28;20069;-69
2023/07/23 14:57:14;;;;;;;2.78;1.85;;;;;;;31.22;22.37;97185.69;10421423;28;20056;-70
2023/07/23 15:02:35;;;;;;;3.10;1.67;;;;;;;31.22;22.85;97171.28;10406135;28;20084;-69
2023/07/23 15:07:57;;;;;;;4.22;2.30;;;;;;;30.87;22.26;97164.84;10420940;28;20045;-70
2023/07/23 15:13:18;;;;;;;2.37;1.60;;;;;;;30.64;22.42;97162.47;10420679;28;20044;-70
2023/07/23 15:18:39;;;;;;;5.57;2.30;;;;;;;30.53;22.25;97151.88;10420241;28;20045;-69
2023/07/23 15:24:00;;;;;;;4.78;1.80;;;;;;;30.52;22.38;97156.94;10420558;28;20117;-69
2023/07/23 15:29:21;;;;;;;5.40;2.17;;;;;;;30.48;22.85;97163.47;10405243;28;20080;-70
2023/07/23 15:34:42;;;;;;;3.43;1.80;;;;;;;30.19;22.08;97157.56;10420135;28;20046;-69
2023/07/23 15:40:04;;;;;;;4.10;1.95;;;;;;;29.99;22.24;97163.00;10390933;28;20041;-70
2023/07/23 15:45:25;;;;;;;3.70;2.13;;;;;;;29.87;22.35;97164.63;10419555;28;20514;-70
2023/07/23 15:50:45;;;;;;;5.57;1.95;;;;;;;29.87;22.37;97161.06;10404568;28;20073;-70
2023/07/23 15:56:06;;;;;;;2.60;1.87;;;;;;;29.75;22.34;97161.97;10418787;28;20096;-69
2023/07/23 16:01:27;;;;;;;4.65;2.33;;;;;;;29.58;21.93;97175.94;10403826;28;20454;-70
2023/07/23 16:06:49;;;;;;;;;;;;;;;29.35;21.13;97169.81;10419033;28;20061;-70
2023/07/23 16:12:09;;;;;;;5.18;2.25;;;;;;;29.37;21.31;97166.19;10403734;28;19967;-69
2023/07/23 16:17:30;;;;;;;3.33;2.20;;;;;;;29.56;21.46;97160.88;10418492;28;20052;-69
2023/07/23 16:22:51;;;;;;;3.80;2.08;;;;;;;29.67;21.46;97152.78;10418076;28;20041;-69
2023/07/23 16:28:14;;;;;;;3.50;2.60;;;;;;;29.60;21.06;97155.06;10402941;28;20196;-69
2023/07/23 16:33:35;;;;;;;5.90;2.85;;;;;;;29.56;21.40;97150.09;10389956;28;20041;-69
2023/07/23 16:38:56;;;;;;;3.35;2.72;;;;;;;29.41;21.15;97151.03;10417437;28;20129;-70
2023/07/23 16:44:17;;;;;;;4.33;3.10;;;;;;;29.25;21.47;97149.16;10388723;28;20053;-70
2023/07/23 16:49:38;;;;;;;3.70;2.60;;;;;;;29.17;21.42;97149.28;10417076;28;20501;-69
2023/07/23 16:54:59;;;;;;;4.97;2.70;;;;;;;29.13;21.48;97143.56;10402382;28;20049;-70
2023/07/23 17:00:21;;;;;;;3.47;2.88;;;;;;;29.04;21.93;97151.59;10388556;28;20117;-70
2023/07/23 17:05:41;;;;;;;5.00;2.78;;;;;;;28.89;22.22;97148.25;10415332;28;20049;-69
2023/07/23 17:11:13;;;;;;;4.15;2.65;;;;;;;28.80;22.52;97150.50;10416282;28;20057;-69
2023/07/23 17:16:35;;;;;;;6.40;2.97;;;;;;;28.69;22.83;97149.22;10387892;28;20088;-69
2023/07/23 17:21:57;;;;;;;4.63;2.53;;;;;;;28.58;22.73;97145.06;10401612;28;20045;-70
2023/07/23 17:27:18;;;;;;;4.47;3.20;;;;;;;28.50;22.83;97150.91;10400748;28;20092;-69
2023/07/23 17:32:42;;;;;;;4.38;2.67;;;;;;;28.35;23.19;97144.63;10400525;28;20087;-69
2023/07/23 17:38:03;;;;;;;4.68;2.63;;;;;;;28.18;23.27;97146.22;10415180;28;20041;-69
2023/07/23 17:43:24;;;;;;;3.85;2.60;;;;;;;28.02;23.52;97160.78;10415207;28;20499;-69
2023/07/23 17:48:45;;;;;;;5.82;2.83;;;;;;;27.92;23.76;97155.84;10400135;28;20487;-68
2023/07/23 17:54:06;;;;;;;5.73;2.67;;;;;;;27.81;24.27;97151.69;10400364;28;20052;-68
2023/07/23 17:59:27;;;;;;;5.22;2.60;;;;;;;27.73;24.22;97157.47;10414848;28;20410;-68
2023/07/23 18:04:48;;;;;;;4.03;2.95;;;;;;;27.62;24.45;97160.41;10415143;28;20089;-69
2023/07/23 18:10:09;;;;;;;3.83;2.60;;;;;;;27.52;24.43;97166.25;10399953;28;20462;-67
2023/07/23 18:15:30;;;;;;;3.97;2.25;;;;;;;27.37;24.83;97167.78;10400452;28;20056;-69
2023/07/23 18:20:50;;;;;;;5.10;2.95;;;;;;;27.22;25.33;97169.34;10422727;28;20073;-69
2023/07/23 18:26:11;;;;;;;6.15;3.13;;;;;;;27.10;25.38;97176.56;10422420;28;20054;-69
2023/07/23 18:31:32;;;;;;;4.57;2.45;;;;;;;27.00;25.40;97176.63;10422435;28;20045;-69
2023/07/23 18:36:56;;;;;;;6.22;2.90;;;;;;;26.89;25.82;97188.88;10422624;28;20072;-69
2023/07/23 18:42:17;;;;;;;7.03;3.10;;;;;;;26.76;26.60;97200.38;10421991;28;20104;-69
2023/07/23 18:47:38;;;;;;;3.30;2.20;;;;;;;26.58;27.20;97209.06;10421712;28;20052;-67
2023/07/23 18:52:59;;;;;;;4.20;2.33;;;;;;;26.37;27.60;97222.00;10407327;28;20442;-67
2023/07/23 18:58:20;;;;;;;4.80;2.03;;;;;;;26.19;27.77;97228.47;10421086;28;20068;-67
2023/07/23 19:03:41;;;;;;;3.40;2.03;;;;;;;25.97;28.82;97249.25;10421333;28;20471;-69
2023/07/23 19:09:02;;;;;;;3.72;1.98;;;;;;;25.78;29.02;97239.25;10421013;28;20045;-69
2023/07/23 19:14:23;;;;;;;4.10;1.95;;;;;;;25.56;30.13;97248.50;10421262;28;20466;-69
2023/07/23 19:19:44;;;;;;;8.07;2.50;;;;;;;25.36;30.40;97249.91;10405906;28;20432;-69
2023/07/23 19:25:05;;;;;;;6.07;2.30;;;;;;;25.21;30.61;97262.75;10392616;28;20164;-69
2023/07/23 19:30:26;;;;;;;3.75;2.38;;;;;;;25.08;30.79;97261.28;10404948;28;20075;-69
2023/07/23 19:35:47;;;;;;;4.45;2.10;;;;;;;24.92;30.85;97249.78;10419774;28;20150;-67
2023/07/23 19:41:08;;;;;;;4.13;2.47;;;;;;;24.77;31.29;97243.31;10405408;28;20116;-67
2023/07/23 19:46:29;;;;;;;3.88;2.45;;;;;;;24.62;31.60;97245.41;10419937;28;20112;-67
2023/07/23 19:51:51;;;;;;;2.85;2.20;;;;;;;24.49;31.46;97258.16;10387539;28;20099;-64
2023/07/23 19:57:14;;;;;;;7.60;2.55;;;;;;;24.38;32.07;97254.56;10394412;28;20121;-68
2023/07/23 20:02:36;;;;;;;5.55;2.20;;;;;;;24.23;32.02;97250.88;10397577;28;20057;-70
2023/07/23 20:07:59;;;;;;;4.67;2.33;;;;;;;24.07;32.63;97244.38;10386491;28;20057;-66
2023/07/23 20:13:20;;;;;;;3.95;2.67;;;;;;;23.96;32.83;97246.44;10416773;28;20303;-70
2023/07/23 20:18:41;;;;;;;3.47;2.28;;;;;;;23.85;32.66;97254.19;10383916;28;20487;-70
2023/07/23 20:24:02;;;;;;;3.78;2.13;;;;;;;23.75;32.98;97250.56;10373411;28;20049;-68
2023/07/23 20:29:22;;;;;;;5.38;2.35;;;;;;;23.65;32.81;97256.88;10411471;28;20049;-65
2023/07/23 20:34:43;;;;;;;6.15;2.60;;;;;;;23.52;33.17;97249.63;10413970;28;20045;-67
2023/07/23 20:40:06;;;;;;;4.25;2.60;;;;;;;23.42;33.24;97255.94;10413002;28;20065;-66
2023/07/23 20:45:27;;;;;;;5.32;2.85;;;;;;;23.33;33.33;97257.28;10386960;28;20072;-66
2023/07/23 20:50:47;;;;;;;5.90;3.10;;;;;;;23.24;33.66;97256.47;10409244;28;20551;-64
2023/07/23 20:56:08;;;;;;;6.30;3.22;;;;;;;23.17;33.23;97255.00;10383041;28;20069;-65
2023/07/23 21:01:29;;;;;;;5.10;2.60;;;;;;;23.09;33.59;97255.63;10397815;28;20057;-65
2023/07/23 21:06:50;;;;;;;3.75;2.60;;;;;;;23.01;33.63;97244.16;10412718;28;20076;-64
2023/07/23 21:12:11;;;;;;;5.40;2.90;;;;;;;22.93;33.70;97249.75;10401584;28;20068;-65
2023/07/23 21:17:31;;;;;;;5.47;2.63;;;;;;;22.86;33.70;97242.53;10387783;28;20113;-65
2023/07/23 21:22:52;;;;;;;5.68;2.70;;;;;;;22.85;33.78;97232.59;10416570;28;20081;-65
2023/07/23 21:28:13;;;;;;;4.97;2.92;;;;;;;22.85;33.77;97232.59;10401290;28;20046;-65
2023/07/23 21:33:37;;;;;;;4.00;2.33;;;;;;;22.87;33.83;97226.91;10415645;28;20121;-65
2023/07/23 21:38:57;;;;;;;4.88;3.25;;;;;;;22.92;33.91;97224.84;10415594;28;20164;-65
2023/07/23 21:44:18;;;;;;;4.55;3.10;;;;;;;22.96;33.80;97228.44;10400566;28;20117;-65
2023/07/23 21:49:39;;;;;;;5.15;3.13;;;;;;;23.01;33.80;97227.06;10401141;28;20120;-65
2023/07/23 21:54:59;;;;;;;4.72;3.08;;;;;;;23.07;33.73;97226.44;10400154;28;20460;-66
2023/07/23 22:00:20;;;;;;;5.18;3.03;;;;;;;23.08;33.70;97236.41;10415618;28;20133;-65
2023/07/23 22:05:40;;;;;;;4.93;2.95;;;;;;;23.05;33.81;97229.22;10414687;28;20193;-65
2023/07/23 22:11:01;;;;;;;6.50;3.38;;;;;;;22.99;33.52;97226.34;10386358;28;20077;-65
2023/07/23 22:16:22;;;;;;;5.47;3.38;;;;;;;22.92;33.47;97225.56;10400133;28;20042;-65
2023/07/23 22:21:43;;;;;;;6.25;3.17;;;;;;;22.87;33.83;97223.34;10399704;28;20054;-65
2023/07/23 22:27:04;;;;;;;5.55;3.10;;;;;;;22.79;33.83;97223.97;10414393;28;20073;-65
2023/07/23 22:32:25;;;;;;;6.05;3.17;;;;;;;22.68;34.22;97222.41;10414421;28;20069;-65
2023/07/23 22:37:45;;;;;;;5.57;3.03;;;;;;;22.54;34.52;97217.97;10399694;28;20503;-65
2023/07/23 22:43:06;;;;;;;4.80;3.33;;;;;;;22.45;34.39;97210.75;10399372;28;20045;-65
2023/07/23 22:48:27;;;;;;;6.53;3.30;;;;;;;22.41;34.65;97210.00;10399438;28;20095;-65
2023/07/23 22:53:48;;;;;;;5.60;3.05;;;;;;;22.35;34.97;97212.75;10414235;28;20125;-65
2023/07/23 22:59:11;;;;;;;4.68;3.20;;;;;;;22.30;34.91;97214.84;10399457;28;20069;-65
2023/07/23 23:04:32;;;;;;;7.32;3.42;;;;;;;22.27;35.34;97213.38;10417515;28;20081;-65
2023/07/23 23:09:52;;;;;;;6.18;3.50;;;;;;;22.20;35.13;97206.19;10420813;28;20450;-65
2023/07/23 23:15:13;;;;;;;5.13;3.25;;;;;;;22.13;35.48;97198.97;10420854;28;20077;-65
2023/07/23 23:20:35;;;;;;;5.65;2.95;;;;;;;22.13;35.57;97201.81;10420490;28;20129;-65
2023/07/23 23:25:56;;;;;;;5.22;3.13;;;;;;;22.16;35.82;97197.59;10420456;28;20208;-65
2023/07/23 23:31:18;;;;;;;5.07;3.20;;;;;;;22.15;35.60;97194.03;10420174;28;20447;-65
2023/07/23 23:36:39;;;;;;;5.18;3.15;;;;;;;22.15;35.60;97193.31;10420348;28;20527;-65
2023/07/23 23:42:00;;;;;;;8.75;3.33;;;;;;;22.12;35.82;97192.59;10419839;28;20165;-65
2023/07/23 23:47:20;;;;;;;7.07;3.40;;;;;;;22.10;36.06;97194.66;10419640;28;20046;-65
2023/07/23 23:52:41;;;;;;;7.68;3.15;;;;;;;22.09;35.98;97193.94;10404836;28;20095;-65
2023/07/23 23:58:02;;;;;;;6.90;3.65;;;;;;;22.04;35.89;97191.72;10404336;28;20065;-65
